Time;durP1;ratioP1;P1;durP2;ratioP2;P2;SDS_P1;SDS_P2;PMS_P1;PMS_P2;Temp;Humidity;BMP_temperature;BMP_pressure;BME280_temperature;BME280_humidity;BME280_pressure;Samples;Min_cycle;Max_cycle;Signal;HPM_P1;HPM_P2
2023/09/06 00:00:28;;;;;;;3.65;2.65;;;;;;;21.64;52.89;97548.94;4937742;28;20253;-80
2023/09/06 00:02:55;;;;;;;3.45;2.25;;;;;;;21.67;52.96;97548.28;4950507;28;20588;-80
2023/09/06 00:05:21;;;;;;;4.18;3.13;;;;;;;21.61;52.91;97540.78;4962080;28;20606;-80
2023/09/06 00:07:46;;;;;;;3.30;2.70;;;;;;;21.43;53.63;97539.94;4956931;28;20194;-81
2023/09/06 00:10:14;;;;;;;2.53;2.33;;;;;;;21.42;53.17;97541.81;4976310;28;20278;-81
2023/09/06 00:12:40;;;;;;;4.00;2.70;;;;;;;21.34;53.22;97529.31;4972336;28;20190;-80
2023/09/06 00:15:06;;;;;;;3.22;2.42;;;;;;;21.36;53.21;97542.25;4931798;28;20191;-80
2023/09/06 00:17:31;;;;;;;2.92;2.67;;;;;;;21.34;52.94;97539.91;4971099;28;20272;-80
2023/09/06 00:19:56;;;;;;;2.42;2.15;;;;;;;21.29;52.59;97532.09;4966523;28;20813;-81
2023/09/06 00:22:22;;;;;;;3.17;2.67;;;;;;;21.26;52.93;97537.97;4954738;28;20293;-80
2023/09/06 00:24:47;;;;;;;3.08;2.35;;;;;;;21.21;52.89;97538.88;4951569;28;20769;-80
2023/09/06 00:27:18;;;;;;;2.53;2.33;;;;;;;21.18;53.03;97541.38;4955373;28;20211;-80
2023/09/06 00:29:46;;;;;;;2.67;2.47;;;;;;;21.21;53.08;97538.13;4949730;28;20649;-80
2023/09/06 00:32:11;;;;;;;3.75;2.83;;;;;;;21.20;52.92;97534.69;4960627;28;20732;-81
2023/09/06 00:34:36;;;;;;;2.67;2.47;;;;;;;21.22;52.86;97532.53;4964166;28;20355;-80
2023/09/06 00:37:02;;;;;;;2.95;2.25;;;;;;;21.29;52.15;97532.09;4964745;28;20713;-80
2023/09/06 00:39:30;;;;;;;3.47;3.17;;;;;;;21.30;52.29;97530.97;4941756;28;20206;-81
2023/09/06 00:41:56;;;;;;;2.50;2.30;;;;;;;21.27;52.19;97529.75;4963583;28;20261;-81
2023/09/06 00:44:21;;;;;;;3.00;2.70;;;;;;;21.19;52.02;97527.81;4972370;28;20296;-81
2023/09/06 00:46:49;;;;;;;3.05;2.70;;;;;;;21.18;52.02;97530.78;4948917;28;20222;-80
2023/09/06 00:49:15;;;;;;;4.03;3.00;;;;;;;21.13;51.50;97519.25;4930659;28;20679;-80
2023/09/06 00:51:42;;;;;;;4.28;3.17;;;;;;;21.12;51.71;97517.66;4956251;28;20167;-80
2023/09/06 00:54:07;;;;;;;3.38;2.60;;;;;;;21.18;51.29;97522.84;4945904;28;20261;-81
2023/09/06 00:56:33;;;;;;;3.63;3.10;;;;;;;21.16;51.80;97532.94;4948421;28;20183;-80
2023/09/06 00:59:01;;;;;;;2.80;2.45;;;;;;;21.12;51.40;97528.25;4968396;28;20172;-81
2023/09/06 01:01:28;;;;;;;3.65;2.75;;;;;;;21.17;51.17;97529.22;4983523;28;21751;-81
2023/09/06 01:03:53;;;;;;;3.17;2.88;;;;;;;21.18;50.90;97539.53;4984255;23;20114;-86
2023/09/06 01:06:26;;;;;;;3.53;2.55;;;;;;;21.24;50.86;97527.69;4946931;28;20201;-86
2023/09/06 01:09:05;;;;;;;4.45;3.03;;;;;;;21.33;50.89;97527.72;4919480;28;20272;-86
2023/09/06 01:11:32;;;;;;;4.43;3.00;;;;;;;21.13;50.86;97508.66;4970530;28;20220;-85
2023/09/06 01:13:58;;;;;;;3.00;2.70;;;;;;;21.29;50.37;97524.13;4941991;28;20255;-86
2023/09/06 01:16:27;;;;;;;3.50;3.20;;;;;;;21.27;51.03;97532.38;4943608;28;20208;-85
2023/09/06 01:18:53;;;;;;;4.03;2.72;;;;;;;21.28;50.94;97538.44;4961240;28;20259;-85
2023/09/06 01:21:19;;;;;;;3.65;2.92;;;;;;;21.27;50.50;97529.75;4941075;28;20279;-85
2023/09/06 01:23:45;;;;;;;3.25;2.90;;;;;;;21.08;50.63;97506.13;4939377;28;20179;-86
2023/09/06 01:26:10;;;;;;;3.63;3.33;;;;;;;21.13;50.89;97529.84;4957982;28;20238;-85
2023/09/06 01:28:36;;;;;;;3.63;2.85;;;;;;;21.17;50.99;97526.59;4945672;28;20205;-86
2023/09/06 01:31:01;;;;;;;3.60;3.15;;;;;;;21.07;51.36;97525.75;4971863;28;20270;-86
2023/09/06 01:33:30;;;;;;;2.72;2.53;;;;;;;21.04;50.77;97514.97;4917808;28;20204;-86
2023/09/06 01:35:57;;;;;;;3.40;3.10;;;;;;;21.04;51.70;97526.38;4943148;28;20269;-85
2023/09/06 01:38:22;;;;;;;3.28;2.97;;;;;;;20.89;51.43;97518.81;4930259;28;20274;-86
2023/09/06 01:40:48;;;;;;;3.22;2.90;;;;;;;20.84;52.21;97534.81;4959039;28;20196;-85
2023/09/06 01:43:13;;;;;;;3.60;3.20;;;;;;;20.56;52.36;97522.47;4945553;28;20188;-85
2023/09/06 01:45:44;;;;;;;3.85;3.10;;;;;;;20.51;52.33;97535.81;4951006;28;20251;-85
2023/09/06 01:48:09;;;;;;;3.90;3.20;;;;;;;20.17;53.33;97517.81;4931793;28;20552;-85
2023/09/06 01:50:35;;;;;;;4.15;2.88;;;;;;;20.07;53.56;97524.09;4945026;28;20233;-85
2023/09/06 01:53:00;;;;;;;3.53;3.05;;;;;;;20.10;54.15;97543.84;4941737;28;20262;-85
2023/09/06 01:55:26;;;;;;;3.08;2.78;;;;;;;20.14;53.42;97547.47;4926623;28;20228;-86
2023/09/06 01:57:51;;;;;;;3.33;2.85;;;;;;;20.02;54.23;97537.41;4955409;28;20095;-85
2023/09/06 02:00:25;;;;;;;4.25;3.00;;;;;;;19.85;54.02;97519.53;4957881;28;20195;-85
2023/09/06 02:02:51;;;;;;;;;;;;;;;20.15;53.57;97546.38;4929007;28;20184;-85
2023/09/06 02:05:17;;;;;;;3.28;2.97;;;;;;;19.89;54.22;97539.00;4939150;28;20089;-85
2023/09/06 02:07:44;;;;;;;4.75;3.25;;;;;;;19.80;55.09;97536.25;4928028;28;20229;-86
2023/09/06 02:10:09;;;;;;;3.45;3.10;;;;;;;19.73;54.77;97533.22;4947758;28;20344;-86
2023/09/06 02:12:35;;;;;;;3.25;2.75;;;;;;;19.61;55.32;97522.38;4887179;28;20455;-85
2023/09/06 02:15:01;;;;;;;3.75;3.10;;;;;;;19.58;55.51;97526.34;4922036;28;20226;-85
2023/09/06 02:17:27;;;;;;;4.25;3.45;;;;;;;19.53;55.90;97523.81;4901073;28;20352;-85
2023/09/06 02:19:52;;;;;;;5.78;3.28;;;;;;;19.40;56.77;97527.25;4896951;28;20256;-85
2023/09/06 02:22:18;;;;;;;3.88;3.05;;;;;;;19.34;55.92;97509.94;4931270;28;20222;-85
2023/09/06 02:24:43;;;;;;;3.97;3.10;;;;;;;19.44;55.35;97526.38;4879849;28;20172;-85
2023/09/06 02:27:12;;;;;;;5.35;3.53;;;;;;;19.39;55.39;97515.13;4892685;28;20567;-85
2023/09/06 02:29:38;;;;;;;4.32;3.47;;;;;;;19.33;55.34;97503.09;4929320;28;20295;-85
2023/09/06 02:32:04;;;;;;;4.05;3.42;;;;;;;19.39;54.89;97515.91;4918607;28;20202;-85
2023/09/06 02:34:29;;;;;;;4.15;3.40;;;;;;;19.59;54.69;97517.38;4879664;28;20178;-85
2023/09/06 02:36:56;;;;;;;3.97;3.53;;;;;;;19.65;54.53;97515.41;4911178;28;20552;-85
2023/09/06 02:39:22;;;;;;;3.95;3.10;;;;;;;19.72;54.27;97509.72;4909725;28;20213;-85
2023/09/06 02:41:48;;;;;;;4.85;3.20;;;;;;;19.66;53.81;97498.50;4911658;28;20276;-85
2023/09/06 02:44:14;;;;;;;3.85;3.15;;;;;;;19.42;54.17;97501.34;4929688;28;20319;-85
2023/09/06 02:46:40;;;;;;;3.80;3.30;;;;;;;19.39;54.22;97518.53;4877651;28;20233;-85
2023/09/06 02:49:12;;;;;;;3.60;3.20;;;;;;;19.26;54.91;97517.47;4914882;28;20293;-85
2023/09/06 02:51:43;;;;;;;3.58;3.28;;;;;;;19.35;54.89;97527.34;4937118;28;20653;-85
2023/09/06 02:54:09;;;;;;;4.30;3.20;;;;;;;19.28;55.03;97523.22;4879156;28;20289;-85
2023/09/06 02:56:37;;;;;;;4.10;3.70;;;;;;;19.35;54.58;97527.34;4897688;28;20213;-85
2023/09/06 02:59:03;;;;;;;4.75;3.83;;;;;;;19.39;54.28;97526.47;4897741;28;20158;-85
2023/09/06 03:01:30;;;;;;;3.72;3.38;;;;;;;19.41;53.99;97523.53;4896382;28;20347;-85
2023/09/06 03:03:57;;;;;;;4.03;3.30;;;;;;;19.44;53.55;97521.09;4916621;28;20260;-84
2023/09/06 03:06:32;;;;;;;5.05;3.30;;;;;;;19.23;54.67;97515.41;4900800;28;20578;-84
2023/09/06 03:08:59;;;;;;;4.55;3.50;;;;;;;19.24;54.50;97522.25;4903311;28;20271;-85
2023/09/06 03:11:24;;;;;;;4.05;3.35;;;;;;;19.27;54.42;97526.16;4915794;28;20294;-84
2023/09/06 03:13:55;;;;;;;3.47;3.17;;;;;;;19.09;54.77;97504.06;4891524;28;20258;-84
2023/09/06 03:16:22;;;;;;;4.32;3.58;;;;;;;19.28;54.38;97527.75;4911256;28;20221;-85
2023/09/06 03:18:49;;;;;;;4.30;3.40;;;;;;;19.15;54.07;97513.44;4912278;28;20321;-84
2023/09/06 03:21:16;;;;;;;4.00;3.20;;;;;;;19.23;54.11;97525.19;4910944;28;20212;-84
2023/09/06 03:23:44;;;;;;;3.90;3.60;;;;;;;19.09;54.08;97511.97;4937906;28;20198;-85
2023/09/06 03:26:10;;;;;;;4.65;3.38;;;;;;;19.19;54.36;97524.19;4928268;28;20281;-85
2023/09/06 03:28:37;;;;;;;4.07;3.67;;;;;;;19.13;54.21;97530.66;4902418;28;20612;-85
2023/09/06 03:31:03;;;;;;;3.85;3.38;;;;;;;18.93;54.38;97505.38;4906782;28;20208;-85
2023/09/06 03:33:29;;;;;;;4.50;3.10;;;;;;;18.77;55.18;97513.53;4913201;28;20307;-85
2023/09/06 03:35:55;;;;;;;5.93;3.78;;;;;;;18.81;55.37;97540.88;4920188;28;20628;-85
2023/09/06 03:38:25;;;;;;;4.65;3.40;;;;;;;18.70;55.65;97542.91;4924696;28;20219;-85
2023/09/06 03:40:50;;;;;;;5.15;3.80;;;;;;;18.69;55.73;97532.66;4929163;28;20249;-85
2023/09/06 03:43:16;;;;;;;3.95;3.33;;;;;;;18.61;55.39;97515.63;4946926;28;20290;-85
2023/09/06 03:45:44;;;;;;;3.92;3.47;;;;;;;18.68;55.22;97526.59;4923119;28;20222;-85
2023/09/06 03:48:11;;;;;;;3.88;3.45;;;;;;;18.66;55.95;97528.75;4913395;28;20201;-85
2023/09/06 03:50:37;;;;;;;4.53;3.70;;;;;;;18.56;55.94;97517.56;4910607;28;20030;-85
2023/09/06 03:53:04;;;;;;;3.70;3.40;;;;;;;18.65;56.72;97526.41;4917814;28;20184;-86
2023/09/06 03:55:32;;;;;;;4.13;3.47;;;;;;;18.58;56.96;97525.97;4919360;28;20179;-85
2023/09/06 03:57:58;;;;;;;3.63;3.33;;;;;;;18.45;56.85;97522.97;4922485;28;20804;-85
2023/09/06 04:00:24;;;;;;;5.40;3.78;;;;;;;18.49;57.56;97531.09;4909921;28;20241;-85
2023/09/06 04:02:56;;;;;;;4.13;3.72;;;;;;;18.48;57.09;97542.72;4912645;28;20243;-85
2023/09/06 04:05:25;;;;;;;4.38;3.90;;;;;;;18.31;57.23;97515.00;4925989;28;20214;-85
2023/09/06 04:08:04;;;;;;;4.90;3.88;;;;;;;18.48;56.90;97546.16;4949414;28;20106;-86
2023/09/06 04:10:36;;;;;;;3.90;3.50;;;;;;;18.42;57.28;97551.78;4940123;28;20162;-85
2023/09/06 04:13:09;;;;;;;4.72;3.50;;;;;;;18.49;57.26;97545.09;4928511;28;20236;-85
2023/09/06 04:15:35;;;;;;;4.78;3.75;;;;;;;18.32;57.78;97545.59;4924282;28;20201;-85
2023/09/06 04:18:03;;;;;;;4.90;4.38;;;;;;;18.31;57.28;97543.22;4923825;28;20235;-84
2023/09/06 04:20:36;;;;;;;4.28;3.58;;;;;;;18.35;57.69;97549.50;4921597;28;20232;-84
2023/09/06 04:23:09;;;;;;;6.28;4.13;;;;;;;18.41;57.53;97547.59;4933053;28;20276;-85
2023/09/06 04:25:41;;;;;;;5.30;4.30;;;;;;;18.31;58.34;97559.81;4912598;28;20238;-84
2023/09/06 04:28:08;;;;;;;4.85;3.80;;;;;;;18.38;57.80;97548.94;4911264;28;20728;-84
2023/09/06 04:30:36;;;;;;;4.75;3.65;;;;;;;18.47;57.64;97547.22;4896201;28;20193;-85
2023/09/06 04:33:10;;;;;;;4.72;4.25;;;;;;;18.55;57.77;97547.66;4910413;28;20042;-84
2023/09/06 04:35:48;;;;;;;4.70;4.10;;;;;;;18.65;56.93;97547.50;4929505;28;20264;-85
2023/09/06 04:38:15;;;;;;;4.43;3.97;;;;;;;18.51;57.39;97534.25;4933161;28;20276;-84
2023/09/06 04:40:44;;;;;;;4.63;4.13;;;;;;;18.52;57.27;97544.53;4948655;28;20635;-84
2023/09/06 04:43:11;;;;;;;6.20;4.20;;;;;;;18.45;57.36;97543.31;4930906;28;20304;-85
2023/09/06 04:45:39;;;;;;;4.93;3.78;;;;;;;18.38;57.08;97530.47;4918594;28;20190;-85
2023/09/06 04:48:09;;;;;;;4.97;4.10;;;;;;;18.51;57.07;97548.22;4939151;28;20241;-85
2023/09/06 04:50:39;;;;;;;5.40;3.90;;;;;;;18.45;57.07;97544.06;4914145;28;20235;-84
2023/09/06 04:53:07;;;;;;;4.13;3.70;;;;;;;18.39;56.67;97529.41;4926898;28;20202;-85
2023/09/06 04:55:35;;;;;;;4.95;3.58;;;;;;;18.40;57.11;97552.06;4894467;28;20284;-85
2023/09/06 04:58:09;;;;;;;4.30;3.75;;;;;;;18.28;57.04;97544.59;4897372;28;20396;-84
2023/09/06 05:00:43;;;;;;;4.43;3.95;;;;;;;18.11;57.50;97529.28;4938597;28;20543;-84
2023/09/06 05:03:11;;;;;;;4.38;3.83;;;;;;;18.17;57.47;97547.66;4905457;28;20365;-84
2023/09/06 05:05:37;;;;;;;5.78;4.20;;;;;;;18.18;57.27;97555.28;4921665;28;20190;-84
2023/09/06 05:08:03;;;;;;;5.43;3.90;;;;;;;18.17;57.72;97556.34;4944746;28;20280;-84
2023/09/06 05:10:28;;;;;;;5.68;3.83;;;;;;;18.03;57.63;97537.81;4900497;28;20217;-84
2023/09/06 05:12:54;;;;;;;4.20;3.63;;;;;;;18.21;57.25;97562.59;4927576;28;20175;-84
2023/09/06 05:15:19;;;;;;;5.65;4.03;;;;;;;18.24;56.87;97558.63;4924876;28;20252;-84
2023/09/06 05:17:44;;;;;;;5.65;3.92;;;;;;;18.24;56.80;97553.34;4922304;28;20184;-84
2023/09/06 05:20:25;;;;;;;5.43;4.03;;;;;;;18.44;56.43;97558.34;4913319;28;20231;-84
2023/09/06 05:22:51;;;;;;;5.82;3.90;;;;;;;18.29;56.34;97548.00;4923903;28;20341;-83
2023/09/06 05:25:17;;;;;;;6.00;4.00;;;;;;;18.40;56.21;97552.06;4909878;28;20562;-83
2023/09/06 05:27:42;;;;;;;5.57;4.10;;;;;;;18.50;56.13;97557.19;4920030;28;20232;-84
2023/09/06 05:30:08;;;;;;;4.93;3.70;;;;;;;18.65;55.54;97563.31;4927211;28;20191;-85
2023/09/06 05:32:33;;;;;;;4.90;4.05;;;;;;;18.58;55.68;97539.16;4940847;28;20261;-84
2023/09/06 05:34:59;;;;;;;4.57;4.13;;;;;;;18.66;55.34;97547.22;4891965;28;20166;-84
2023/09/06 05:37:25;;;;;;;7.93;4.40;;;;;;;18.88;55.36;97572.22;4909281;28;20229;-84
2023/09/06 05:39:50;;;;;;;4.65;4.07;;;;;;;18.92;55.66;97572.41;4945238;28;20200;-84
2023/09/06 05:42:16;;;;;;;5.20;3.92;;;;;;;18.92;55.05;97572.41;4931888;28;20084;-84
2023/09/06 05:44:42;;;;;;;4.45;3.65;;;;;;;18.98;55.58;97573.91;4911437;28;20710;-85
2023/09/06 05:47:08;;;;;;;4.88;4.30;;;;;;;18.92;55.13;97573.22;4927732;28;20099;-84
2023/09/06 05:49:33;;;;;;;6.38;4.00;;;;;;;18.94;55.80;97575.56;4966407;28;20225;-85
2023/09/06 05:51:58;;;;;;;4.85;4.28;;;;;;;18.95;55.72;97580.53;4918369;28;20206;-84
2023/09/06 05:54:24;;;;;;;4.80;3.90;;;;;;;18.82;55.49;97557.53;4896032;28;20180;-84
2023/09/06 05:56:50;;;;;;;4.82;3.78;;;;;;;18.95;55.82;97571.84;4939358;28;20555;-84
2023/09/06 05:59:16;;;;;;;4.38;3.97;;;;;;;19.11;54.81;97585.56;4911227;28;20244;-85
2023/09/06 06:01:41;;;;;;;4.75;4.20;;;;;;;19.23;54.58;97593.81;4912637;28;20217;-84
2023/09/06 06:04:07;;;;;;;5.82;4.07;;;;;;;19.16;55.38;97578.38;4910339;28;20676;-84
2023/09/06 06:06:32;;;;;;;6.10;4.15;;;;;;;19.23;54.01;97581.41;4917757;28;20268;-84
2023/09/06 06:09:00;;;;;;;5.53;4.35;;;;;;;19.41;54.25;97592.19;4916144;28;20202;-84
2023/09/06 06:11:26;;;;;;;5.90;4.50;;;;;;;19.39;54.23;97599.63;4934622;28;20162;-85
2023/09/06 06:13:51;;;;;;;5.15;4.63;;;;;;;19.42;53.52;97591.13;4918106;28;20027;-84
2023/09/06 06:16:16;;;;;;;4.43;4.00;;;;;;;19.43;54.16;97596.13;4903158;28;20138;-84
2023/09/06 06:18:42;;;;;;;4.35;3.95;;;;;;;19.51;54.18;97594.66;4885447;28;20273;-84
2023/09/06 06:21:07;;;;;;;5.55;4.38;;;;;;;19.64;54.01;97599.16;4902552;28;20269;-84
2023/09/06 06:23:32;;;;;;;5.35;3.90;;;;;;;19.61;54.09;97598.97;4920410;28;20157;-84
2023/09/06 06:25:58;;;;;;;4.43;4.03;;;;;;;19.61;54.24;97583.88;4908113;28;20264;-85
2023/09/06 06:28:23;;;;;;;4.38;3.55;;;;;;;19.85;53.89;97598.03;4912848;28;20333;-85
2023/09/06 06:30:49;;;;;;;5.75;4.47;;;;;;;19.82;53.44;97572.97;4926838;28;20205;-84
2023/09/06 06:33:14;;;;;;;5.50;4.13;;;;;;;20.02;52.97;97583.13;4926556;28;20080;-84
2023/09/06 06:35:40;;;;;;;4.47;4.07;;;;;;;19.94;53.38;97573.25;4913688;28;20888;-83
2023/09/06 06:38:05;;;;;;;4.68;4.22;;;;;;;20.01;54.20;97592.16;4918992;28;20638;-84
2023/09/06 06:40:35;;;;;;;4.53;3.92;;;;;;;20.18;53.75;97598.69;4922742;28;20233;-85
2023/09/06 06:43:00;;;;;;;4.80;4.03;;;;;;;20.20;53.79;97585.94;4921160;28;20300;-85
2023/09/06 06:45:26;;;;;;;5.07;4.22;;;;;;;20.31;53.79;97594.47;4922164;28;20599;-85
2023/09/06 06:47:52;;;;;;;4.82;4.10;;;;;;;20.49;53.48;97590.09;4924305;28;20483;-86
2023/09/06 06:50:19;;;;;;;4.60;3.60;;;;;;;20.42;52.93;97579.13;4887453;28;20209;-85
2023/09/06 06:52:45;;;;;;;4.32;3.80;;;;;;;20.56;52.79;97580.66;4937683;28;20210;-85
2023/09/06 06:55:10;;;;;;;4.40;3.90;;;;;;;20.82;52.67;97592.53;4904390;28;20636;-84
2023/09/06 06:57:36;;;;;;;3.97;3.58;;;;;;;20.86;51.85;97573.13;4918467;28;20205;-84
2023/09/06 07:00:06;;;;;;;4.00;3.60;;;;;;;21.17;51.43;97592.78;4900806;28;20182;-85
2023/09/06 07:02:34;;;;;;;4.18;3.78;;;;;;;21.27;51.56;97595.19;4915563;28;20291;-84
2023/09/06 07:05:00;;;;;;;4.65;3.42;;;;;;;21.41;51.77;97597.72;4915933;28;20170;-85
2023/09/06 07:07:25;;;;;;;4.30;3.88;;;;;;;21.54;51.21;97596.91;4900752;28;20189;-85
2023/09/06 07:09:50;;;;;;;4.22;3.50;;;;;;;21.68;50.98;97594.91;4903420;28;20761;-85
2023/09/06 07:12:18;;;;;;;5.00;4.05;;;;;;;21.84;50.21;97592.63;4918864;28;20167;-84
2023/09/06 07:14:44;;;;;;;3.88;3.47;;;;;;;21.98;50.08;97589.06;4950584;28;20296;-85
2023/09/06 07:17:09;;;;;;;3.90;3.50;;;;;;;21.96;49.67;97578.00;4895907;28;20266;-85
2023/09/06 07:19:35;;;;;;;3.88;3.53;;;;;;;22.17;49.60;97572.88;4917861;28;20217;-85
2023/09/06 07:22:00;;;;;;;3.70;3.38;;;;;;;22.36;49.54;97593.84;4917235;28;20165;-84
2023/09/06 07:24:25;;;;;;;5.05;3.60;;;;;;;22.61;48.71;97602.91;4902587;28;20267;-85
2023/09/06 07:26:51;;;;;;;4.05;3.65;;;;;;;22.70;48.72;97592.28;4902643;28;20127;-86
2023/09/06 07:29:18;;;;;;;4.68;3.85;;;;;;;22.87;48.42;97586.19;4889809;28;20201;-85
2023/09/06 07:31:44;;;;;;;3.95;3.55;;;;;;;23.34;47.50;97600.34;4921309;28;20332;-86
2023/09/06 07:34:09;;;;;;;3.75;3.35;;;;;;;23.63;46.51;97606.00;4901865;28;20205;-86
2023/09/06 07:36:36;;;;;;;3.85;3.42;;;;;;;23.69;46.15;97605.53;4902020;28;20194;-84
2023/09/06 07:39:03;;;;;;;5.40;3.60;;;;;;;23.93;45.46;97596.22;4868074;28;20261;-86
2023/09/06 07:41:29;;;;;;;3.95;3.53;;;;;;;24.14;44.47;97606.88;4931435;28;20505;-86
2023/09/06 07:43:54;;;;;;;4.60;4.20;;;;;;;24.22;45.25;97610.59;4915268;28;20256;-86
2023/09/06 07:46:24;;;;;;;4.25;3.88;;;;;;;24.58;44.98;97612.72;4901578;28;20189;-85
2023/09/06 07:48:49;;;;;;;3.75;3.40;;;;;;;24.52;44.95;97583.91;4933843;28;20704;-86
2023/09/06 07:51:15;;;;;;;3.85;3.55;;;;;;;24.77;43.93;97588.28;4887226;28;20193;-88
2023/09/06 07:53:41;;;;;;;4.00;3.60;;;;;;;25.00;43.41;97595.91;4889777;28;20565;-85
2023/09/06 07:56:07;;;;;;;4.03;3.65;;;;;;;25.18;43.93;97597.28;4916325;28;20168;-86
2023/09/06 07:58:33;;;;;;;4.45;3.60;;;;;;;25.33;43.53;97587.91;4885062;28;20311;-85
2023/09/06 08:00:58;;;;;;;4.18;3.38;;;;;;;25.57;43.33;97603.16;4884065;28;20280;-87
2023/09/06 08:03:25;;;;;;;4.18;3.75;;;;;;;25.54;42.64;97603.03;4921840;28;20229;-87
2023/09/06 08:05:50;;;;;;;4.05;3.67;;;;;;;25.47;42.43;97595.59;4939160;28;20193;-85
2023/09/06 08:08:16;;;;;;;4.35;4.05;;;;;;;25.78;42.68;97603.03;4905144;28;20212;-86
2023/09/06 08:10:41;;;;;;;5.80;4.22;;;;;;;25.94;42.47;97602.38;4889756;28;20203;-87
2023/09/06 08:13:07;;;;;;;3.90;3.50;;;;;;;25.85;41.96;97610.50;4920956;28;20163;-87
2023/09/06 08:15:33;;;;;;;4.25;3.85;;;;;;;25.95;41.45;97590.63;4923118;28;20205;-88
2023/09/06 08:17:59;;;;;;;3.85;3.55;;;;;;;26.19;41.30;97613.84;4939142;28;20253;-87
2023/09/06 08:20:25;;;;;;;4.20;3.90;;;;;;;26.28;40.47;97611.81;4916738;28;20239;-87
2023/09/06 08:22:50;;;;;;;4.97;3.42;;;;;;;26.11;41.05;97609.41;4895986;28;20620;-86
2023/09/06 08:25:17;;;;;;;3.78;3.45;;;;;;;26.41;40.87;97617.13;4904653;28;20498;-85
2023/09/06 08:27:43;;;;;;;3.92;3.63;;;;;;;26.62;40.17;97620.44;4874098;28;20170;-87
2023/09/06 08:30:10;;;;;;;4.28;3.75;;;;;;;26.75;41.11;97610.50;4907729;28;20263;-88
2023/09/06 08:32:39;;;;;;;4.35;3.95;;;;;;;26.80;39.64;97620.94;4890934;28;20197;-87
2023/09/06 08:35:09;;;;;;;4.28;3.97;;;;;;;26.72;38.92;97619.94;4907351;28;20741;-88
2023/09/06 08:37:35;;;;;;;4.85;3.60;;;;;;;26.88;39.32;97614.66;4917990;28;20686;-88
2023/09/06 08:40:05;;;;;;;4.22;3.90;;;;;;;27.32;39.34;97627.28;4917910;28;20248;-88
2023/09/06 08:42:33;;;;;;;3.88;3.50;;;;;;;27.11;38.42;97632.84;4929329;28;20248;-88
2023/09/06 08:45:00;;;;;;;4.05;3.75;;;;;;;27.22;39.49;97619.72;4908002;28;20252;-88
2023/09/06 08:47:27;;;;;;;3.78;3.47;;;;;;;27.57;37.57;97632.47;4926279;28;20212;-88
2023/09/06 08:49:53;;;;;;;3.90;3.50;;;;;;;27.54;38.43;97633.16;4878567;28;20166;-89
2023/09/06 08:52:19;;;;;;;4.15;3.75;;;;;;;27.71;37.65;97638.16;4926140;28;20201;-87
2023/09/06 08:54:53;;;;;;;4.55;3.65;;;;;;;27.78;37.37;97619.59;4894432;28;20194;-86
2023/09/06 08:57:19;;;;;;;4.32;3.92;;;;;;;27.87;36.71;97614.06;4917828;28;20209;-88
2023/09/06 08:59:47;;;;;;;4.05;3.75;;;;;;;28.18;36.43;97634.66;4890112;28;20282;-87
2023/09/06 09:02:14;;;;;;;3.90;3.60;;;;;;;28.33;36.05;97616.25;4886311;28;20293;-88
2023/09/06 09:04:42;;;;;;;3.67;3.38;;;;;;;28.13;36.53;97618.09;4910199;28;20257;-88
2023/09/06 09:07:11;;;;;;;3.60;3.40;;;;;;;28.45;36.53;97634.09;4910853;28;20317;-87
2023/09/06 09:10:04;;;;;;;3.80;3.50;;;;;;;28.78;35.90;97628.28;4895838;28;20213;-88
2023/09/06 09:12:30;;;;;;;4.63;4.07;;;;;;;28.56;35.96;97632.44;4875942;28;20281;-90
2023/09/06 09:14:57;;;;;;;3.53;3.22;;;;;;;28.81;36.21;97626.81;4918040;28;20268;-89
2023/09/06 09:17:23;;;;;;;4.20;3.83;;;;;;;28.62;34.68;97606.91;4935650;28;20182;-88
2023/09/06 09:19:54;;;;;;;3.70;3.40;;;;;;;28.88;34.33;97627.69;4889952;28;20165;-88
2023/09/06 09:22:40;;;;;;;3.80;3.50;;;;;;;29.21;35.50;97628.31;4909546;28;20679;-86
2023/09/06 09:25:14;;;;;;;3.67;3.17;;;;;;;29.06;35.12;97637.97;4894470;28;20205;-87
2023/09/06 09:27:55;;;;;;;4.43;4.03;;;;;;;29.18;34.57;97637.84;4917063;28;20285;-88
2023/09/06 09:30:21;;;;;;;4.00;3.70;;;;;;;29.37;35.64;97634.34;4899476;28;20201;-89
2023/09/06 09:32:48;;;;;;;5.18;3.47;;;;;;;29.36;34.79;97621.31;4899081;28;20218;-89
2023/09/06 09:35:13;;;;;;;4.63;4.13;;;;;;;29.44;33.48;97620.28;4898955;28;20632;-87
2023/09/06 09:37:44;;;;;;;4.05;3.75;;;;;;;29.66;33.47;97624.06;4903834;28;20328;-89
2023/09/06 09:42:54;;;;;;;3.35;3.15;;;;;;;29.59;33.63;97605.94;5027334;22;20262;-87
2023/09/06 09:50:29;;;;;;;3.88;3.58;;;;;;;30.48;34.31;97627.22;4955003;28;20247;-86
2023/09/06 09:58:05;;;;;;;4.07;3.67;;;;;;;30.72;32.38;97630.56;5251711;22;20186;-89
2023/09/06 10:05:41;;;;;;;3.92;3.63;;;;;;;30.35;31.84;97598.97;5277985;22;20064;-86
2023/09/06 10:08:08;;;;;;;3.88;3.47;;;;;;;30.40;31.95;97615.59;5312182;23;20208;-87
2023/09/06 10:10:35;;;;;;;4.13;3.65;;;;;;;30.55;31.64;97624.59;5187546;23;20288;-89
2023/09/06 10:13:04;;;;;;;3.70;3.40;;;;;;;30.86;32.34;97627.25;4894974;28;20244;-86
2023/09/06 10:15:30;;;;;;;3.53;3.22;;;;;;;30.69;31.94;97610.59;4977188;22;20830;-84
2023/09/06 10:25:43;;;;;;;4.10;3.80;;;;;;;31.37;33.67;97597.81;4974337;28;20049;-86
2023/09/06 10:28:09;;;;;;;4.13;3.83;;;;;;;31.45;29.61;97605.97;4913678;28;20642;-87
2023/09/06 10:30:45;;;;;;;4.18;3.88;;;;;;;31.25;30.34;97608.09;4909134;28;20191;-85
2023/09/06 10:33:36;;;;;;;3.63;3.40;;;;;;;31.27;29.81;97605.78;4926775;28;20298;-86
2023/09/06 10:36:07;;;;;;;3.75;3.25;;;;;;;31.24;30.66;97601.16;4935699;28;20698;-86
2023/09/06 10:38:35;;;;;;;4.30;3.22;;;;;;;31.26;30.51;97596.19;4902432;28;20458;-86
2023/09/06 10:41:00;;;;;;;3.72;3.53;;;;;;;31.63;30.52;97611.50;4890457;28;20509;-85
2023/09/06 10:43:43;;;;;;;3.75;3.45;;;;;;;31.67;31.25;97601.50;4926374;28;20045;-86
2023/09/06 10:46:09;;;;;;;3.90;3.55;;;;;;;31.57;29.87;97608.38;4923616;28;20653;-89
2023/09/06 10:48:35;;;;;;;3.90;3.60;;;;;;;31.93;30.42;97611.31;4899989;28;20214;-89
2023/09/06 10:51:06;;;;;;;3.45;3.15;;;;;;;32.28;29.83;97607.31;4881409;28;20202;-85
2023/09/06 10:53:33;;;;;;;3.40;3.20;;;;;;;32.53;30.83;97612.81;4909618;28;20662;-86
2023/09/06 10:56:00;;;;;;;3.70;3.40;;;;;;;32.52;30.06;97588.94;4906966;28;20092;-86
2023/09/06 10:58:28;;;;;;;3.70;3.40;;;;;;;32.81;29.53;97589.81;4922810;28;20505;-85
2023/09/06 11:01:18;;;;;;;4.15;3.72;;;;;;;32.99;28.20;97595.25;4944341;28;20528;-86
2023/09/06 11:03:48;;;;;;;3.47;3.28;;;;;;;33.19;29.00;97603.75;4894097;28;20646;-86
2023/09/06 11:06:23;;;;;;;3.90;3.13;;;;;;;32.99;27.62;97596.00;4891959;28;20263;-86
2023/09/06 11:08:53;;;;;;;3.80;3.50;;;;;;;33.12;28.28;97582.91;4896707;28;20100;-85
2023/09/06 11:11:19;;;;;;;3.65;3.45;;;;;;;33.18;27.20;97591.44;4921186;28;20577;-86
2023/09/06 11:13:45;;;;;;;3.65;3.35;;;;;;;32.97;27.46;97592.94;4900392;28;20328;-87
2023/09/06 11:16:13;;;;;;;3.33;3.13;;;;;;;33.02;27.65;97600.66;4888470;28;20124;-86
2023/09/06 11:18:57;;;;;;;3.47;3.28;;;;;;;33.61;27.45;97591.44;4908539;28;20030;-86
2023/09/06 11:21:24;;;;;;;4.00;3.70;;;;;;;33.71;26.22;97587.97;4926186;28;20214;-85
2023/09/06 11:23:51;;;;;;;3.90;3.60;;;;;;;33.57;26.43;97587.94;4895760;28;20191;-86
2023/09/06 11:26:17;;;;;;;4.15;3.70;;;;;;;33.60;27.85;97584.47;4909918;28;20107;-85
2023/09/06 11:28:43;;;;;;;3.47;3.20;;;;;;;33.82;27.22;97590.66;4921406;28;20034;-85
2023/09/06 11:31:29;;;;;;;3.97;3.67;;;;;;;33.85;26.61;97572.91;4913111;28;20567;-87
2023/09/06 11:33:58;;;;;;;4.18;3.88;;;;;;;34.11;26.97;97585.94;4917186;28;20246;-86
2023/09/06 11:36:27;;;;;;;3.97;3.67;;;;;;;33.86;27.18;97569.03;4889930;28;20212;-86
2023/09/06 11:38:54;;;;;;;3.53;3.33;;;;;;;33.65;26.88;97586.78;4899994;28;20266;-85
2023/09/06 11:41:20;;;;;;;3.78;3.45;;;;;;;33.82;25.29;97582.56;4900854;28;20294;-85
2023/09/06 11:43:49;;;;;;;4.30;4.00;;;;;;;34.25;23.50;97581.69;4893412;28;20720;-84
2023/09/06 11:46:17;;;;;;;4.07;3.78;;;;;;;34.38;25.40;97580.09;4863386;28;20090;-85
2023/09/06 11:48:44;;;;;;;4.40;4.00;;;;;;;33.52;25.89;97562.13;4893954;28;20034;-86
2023/09/06 11:51:11;;;;;;;3.80;3.60;;;;;;;33.04;27.62;97560.56;4900830;28;20638;-86
2023/09/06 11:53:53;;;;;;;3.78;3.58;;;;;;;32.65;28.61;97588.22;4886546;28;20186;-86
2023/09/06 11:56:29;;;;;;;3.90;3.60;;;;;;;32.27;28.14;97574.19;4862171;28;20463;-86
2023/09/06 11:58:59;;;;;;;3.80;3.50;;;;;;;32.23;28.50;97578.03;4925499;28;20577;-85
2023/09/06 12:01:26;;;;;;;4.00;3.60;;;;;;;32.13;27.52;97573.34;4900259;28;20191;-85